RPi & Temperatures at JO21ut

Last graph updates: Wednesday 12 December 2018 08:02 CET

Sunrise: 08:33 & Sunset: 16:28 The Sun is currently visible at an elevation of 0.74 degrees and azimut of 130 and 147279374 Km from the Earth
Moonrise: 12:09 & Moonset: 21:23 Quarter Moon The Moon is 405499 Km from the Earth
Find here more details on MARS.

08:44:22 up 69 days, 8:51, 0 users, load average: 0.41, 0.38, 0.42
Current CPU frequency is: 1000 Mhz
Current GPU temperature: 26.096°C
Current inside temperature is 14.73°C with a humidity of 73.67%
Second inside temperature is 14.9°C with a pressure of 1022.99 Hpa (29.97 inHg) and an uncorrected altitude of -80.45 m
ds18b20 now showing 14.4°C

All the sensors I use, DHT22 | BMP085 | MPU6050 | BH1750FVI | MMA7455 | HMC5883L | MPL3115A2 | DS1307 | HTU21 | AM2321 | DS3231 | INA219 | LM75A , and it's current readout can be viewed here please be patient as it needs to read all sensors data. The page loads after about 10 seconds. In our forum more details can be found such as the used software/sources. Feel free to add yours also..


Pressure BMP085
Pressure BMP085
Pressure BMP085
Pressure BMP085
PI CPU Temp
Inet Volkel temp
Inside temp BMP085
Humidity BMP085
PI CPU Temp
Inet Volkel temp
Inside temp BMP085
Humidity BMP085
PI CPU Temp
Inet Volkel temp
Inside temp BMP085
Humidity BMP085
PI CPU Temp
Inet Volkel temp
Inside temp BMP085
Humidity BMP085
PI CPU Temp
Inet Volkel temp
Inside temp BMP085
Humidity BMP085
Inside light BH1750FV
Inside light BH1750FV
Inside light BH1750FV
Inside light BH1750FV
Inside light BH1750FV
Inside light BH1750FV
Sunlight hours
 

Sun & Moon height


Wijchen weather

Weer Widget
ScreenSaver yr.no

Sun Moon Earth


EHEH 120955Z AUTO 05005KT 010V070 4100 BR OVC046 02/02 Q1026 GRN 09005KT 5000 BKN045 EHEH 120955Z AUTO 05005KT 010V070 4100 BR OVC046 02/02 Q1026 GRN 09005KT 5000 BKN045 EHEH 120955Z AUTO 05005KT 010V070 4100 BR OVC046 02/02 Q1026 GRN 09005KT 5000 BKN045

Weather data from Volkel [NL] EHVK


-131 minutes ago, at 09:55 UTC, the wind was blowing at a speed of 2.6 meters per second (5.8 miles per hour/5 knots) from East (090) in Volkel [EHVK], Netherlands. The temperature was 2 °C (36 °F) with a dewpoint of 2 °C (36 °F), the windchill was -1 °C (31 °F) and the pressure was 1,026 hPa (30.30 inHg). The relative humidity was 100.0%. There were overcast at a height of 1402 meter (4600 feet) and broken clouds at a height of 1372 meter (4500 feet). The visibility was 5.0 kilometers (3.1 miles). Current weather is Moderate Mist .




View code:

Contact me  |  My Raspberry PI forum